sensor_id;sensor_type;location;lat;lon;timestamp;temperature;humidity
37702;DHT22;23548;51.196;6.838;2024-01-15T00:02:05;1.80;99.90
37702;DHT22;23548;51.196;6.838;2024-01-15T00:04:40;1.70;99.90
37702;DHT22;23548;51.196;6.838;2024-01-15T00:07:07;1.70;99.90
37702;DHT22;23548;51.196;6.838;2024-01-15T00:09:33;1.60;99.90
37702;DHT22;23548;51.196;6.838;2024-01-15T00:12:00;1.60;99.90
37702;DHT22;23548;51.196;6.838;2024-01-15T00:14:26;1.60;99.90
37702;DHT22;23548;51.196;6.838;2024-01-15T00:16:52;1.60;99.90
37702;DHT22;23548;51.196;6.838;2024-01-15T00:19:20;1.50;99.90
37702;DHT22;23548;51.196;6.838;2024-01-15T00:21:46;1.40;99.90
37702;DHT22;23548;51.196;6.838;2024-01-15T00:24:12;1.50;99.90
37702;DHT22;23548;51.196;6.838;2024-01-15T00:26:37;1.50;99.90
37702;DHT22;23548;51.196;6.838;2024-01-15T00:29:03;1.40;99.90
37702;DHT22;23548;51.196;6.838;2024-01-15T00:31:29;1.40;99.90
37702;DHT22;23548;51.196;6.838;2024-01-15T00:33:56;1.40;99.90
37702;DHT22;23548;51.196;6.838;2024-01-15T00:36:23;1.50;99.90
37702;DHT22;23548;51.196;6.838;2024-01-15T00:38:49;1.50;99.90
37702;DHT22;23548;51.196;6.838;2024-01-15T00:41:15;1.50;99.90
37702;DHT22;23548;51.196;6.838;2024-01-15T00:43:40;1.50;99.90
37702;DHT22;23548;51.196;6.838;2024-01-15T00:46:06;1.50;99.90
37702;DHT22;23548;51.196;6.838;2024-01-15T00:48:32;1.40;99.90
37702;DHT22;23548;51.196;6.838;2024-01-15T00:50:58;1.50;99.90
37702;DHT22;23548;51.196;6.838;2024-01-15T00:53:25;1.40;99.90
37702;DHT22;23548;51.196;6.838;2024-01-15T00:55:50;1.50;99.90
37702;DHT22;23548;51.196;6.838;2024-01-15T00:58:16;1.50;99.90
37702;DHT22;23548;51.196;6.838;2024-01-15T01:00:42;1.50;99.90
37702;DHT22;23548;51.196;6.838;2024-01-15T01:03:08;1.50;99.90
37702;DHT22;23548;51.196;6.838;2024-01-15T01:05:34;1.50;99.90
37702;DHT22;23548;51.196;6.838;2024-01-15T01:08:00;1.60;99.90
37702;DHT22;23548;51.196;6.838;2024-01-15T01:10:26;1.70;99.90
37702;DHT22;23548;51.196;6.838;2024-01-15T01:12:52;1.60;99.90
37702;DHT22;23548;51.196;6.838;2024-01-15T01:15:18;1.60;99.90
37702;DHT22;23548;51.196;6.838;2024-01-15T01:17:44;1.70;99.90
37702;DHT22;23548;51.196;6.838;2024-01-15T01:20:10;1.70;99.90
37702;DHT22;23548;51.196;6.838;2024-01-15T01:22:36;1.70;99.90
37702;DHT22;23548;51.196;6.838;2024-01-15T01:25:02;1.70;99.90
37702;DHT22;23548;51.196;6.838;2024-01-15T01:27:28;1.70;99.90
37702;DHT22;23548;51.196;6.838;2024-01-15T01:29:54;1.70;99.90
37702;DHT22;23548;51.196;6.838;2024-01-15T01:32:20;1.70;99.90
37702;DHT22;23548;51.196;6.838;2024-01-15T01:34:46;1.70;99.90
37702;DHT22;23548;51.196;6.838;2024-01-15T01:37:12;1.80;99.90
37702;DHT22;23548;51.196;6.838;2024-01-15T01:39:41;1.80;99.90
37702;DHT22;23548;51.196;6.838;2024-01-15T01:42:07;1.70;99.90
37702;DHT22;23548;51.196;6.838;2024-01-15T01:44:33;1.80;99.90
37702;DHT22;23548;51.196;6.838;2024-01-15T01:46:59;1.70;99.90
37702;DHT22;23548;51.196;6.838;2024-01-15T01:49:27;1.80;99.90
37702;DHT22;23548;51.196;6.838;2024-01-15T01:51:53;1.80;99.90
37702;DHT22;23548;51.196;6.838;2024-01-15T01:54:20;1.80;99.90
37702;DHT22;23548;51.196;6.838;2024-01-15T01:56:47;1.80;99.90
37702;DHT22;23548;51.196;6.838;2024-01-15T01:59:14;1.80;99.90
37702;DHT22;23548;51.196;6.838;2024-01-15T02:01:40;1.80;99.90
37702;DHT22;23548;51.196;6.838;2024-01-15T02:04:08;1.90;99.90
37702;DHT22;23548;51.196;6.838;2024-01-15T02:06:34;1.90;99.90
37702;DHT22;23548;51.196;6.838;2024-01-15T02:09:00;2.00;99.90
37702;DHT22;23548;51.196;6.838;2024-01-15T02:11:27;1.90;99.90
37702;DHT22;23548;51.196;6.838;2024-01-15T02:13:52;1.90;99.90
37702;DHT22;23548;51.196;6.838;2024-01-15T02:16:18;1.90;99.90
37702;DHT22;23548;51.196;6.838;2024-01-15T02:18:45;1.90;99.90
37702;DHT22;23548;51.196;6.838;2024-01-15T02:24:33;1.90;99.90
37702;DHT22;23548;51.196;6.838;2024-01-15T02:26:59;1.90;99.90
37702;DHT22;23548;51.196;6.838;2024-01-15T02:29:25;1.90;99.90
37702;DHT22;23548;51.196;6.838;2024-01-15T02:31:50;1.90;99.90
37702;DHT22;23548;51.196;6.838;2024-01-15T02:34:16;1.90;99.90
37702;DHT22;23548;51.196;6.838;2024-01-15T02:36:42;1.90;99.90
37702;DHT22;23548;51.196;6.838;2024-01-15T02:39:07;1.90;99.90
37702;DHT22;23548;51.196;6.838;2024-01-15T02:41:33;1.90;99.90
37702;DHT22;23548;51.196;6.838;2024-01-15T02:43:59;1.90;99.90
37702;DHT22;23548;51.196;6.838;2024-01-15T02:46:25;1.90;99.90
37702;DHT22;23548;51.196;6.838;2024-01-15T02:48:51;2.00;99.90
37702;DHT22;23548;51.196;6.838;2024-01-15T02:51:16;2.00;99.90
37702;DHT22;23548;51.196;6.838;2024-01-15T02:53:42;2.00;99.90
37702;DHT22;23548;51.196;6.838;2024-01-15T02:56:08;2.00;99.90
37702;DHT22;23548;51.196;6.838;2024-01-15T02:58:33;2.00;99.90
37702;DHT22;23548;51.196;6.838;2024-01-15T03:00:59;2.00;99.90
37702;DHT22;23548;51.196;6.838;2024-01-15T03:03:25;2.10;99.90
37702;DHT22;23548;51.196;6.838;2024-01-15T03:05:50;2.10;99.90
37702;DHT22;23548;51.196;6.838;2024-01-15T03:08:16;2.10;99.90
37702;DHT22;23548;51.196;6.838;2024-01-15T03:10:43;2.00;99.90
37702;DHT22;23548;51.196;6.838;2024-01-15T03:13:08;2.10;99.90
37702;DHT22;23548;51.196;6.838;2024-01-15T03:15:34;2.10;99.90
37702;DHT22;23548;51.196;6.838;2024-01-15T03:18:00;2.10;99.90
37702;DHT22;23548;51.196;6.838;2024-01-15T03:20:25;2.20;99.90
37702;DHT22;23548;51.196;6.838;2024-01-15T03:22:51;2.10;99.90
37702;DHT22;23548;51.196;6.838;2024-01-15T03:25:17;2.10;99.90
37702;DHT22;23548;51.196;6.838;2024-01-15T03:27:42;2.10;99.90
37702;DHT22;23548;51.196;6.838;2024-01-15T03:30:08;2.20;99.90
37702;DHT22;23548;51.196;6.838;2024-01-15T03:32:34;2.20;99.90
37702;DHT22;23548;51.196;6.838;2024-01-15T03:35:00;2.10;99.90
37702;DHT22;23548;51.196;6.838;2024-01-15T03:37:26;2.10;99.90
37702;DHT22;23548;51.196;6.838;2024-01-15T03:39:52;2.20;99.90
37702;DHT22;23548;51.196;6.838;2024-01-15T03:42:17;2.10;99.90
37702;DHT22;23548;51.196;6.838;2024-01-15T03:44:43;2.10;99.90
37702;DHT22;23548;51.196;6.838;2024-01-15T03:47:09;2.10;99.90
37702;DHT22;23548;51.196;6.838;2024-01-15T03:49:34;2.10;99.90
37702;DHT22;23548;51.196;6.838;2024-01-15T03:52:00;2.20;99.90
37702;DHT22;23548;51.196;6.838;2024-01-15T03:54:26;2.20;99.90
37702;DHT22;23548;51.196;6.838;2024-01-15T03:56:52;2.20;99.90
37702;DHT22;23548;51.196;6.838;2024-01-15T03:59:18;2.20;99.90
37702;DHT22;23548;51.196;6.838;2024-01-15T04:01:51;2.20;99.90
37702;DHT22;23548;51.196;6.838;2024-01-15T04:04:18;2.10;99.90
37702;DHT22;23548;51.196;6.838;2024-01-15T04:06:44;2.10;99.90
37702;DHT22;23548;51.196;6.838;2024-01-15T04:09:11;2.10;99.90
37702;DHT22;23548;51.196;6.838;2024-01-15T04:11:37;2.20;99.90
37702;DHT22;23548;51.196;6.838;2024-01-15T04:14:02;2.10;99.90
37702;DHT22;23548;51.196;6.838;2024-01-15T04:16:28;2.20;99.90
37702;DHT22;23548;51.196;6.838;2024-01-15T04:18:53;2.20;99.90
37702;DHT22;23548;51.196;6.838;2024-01-15T04:21:19;2.20;99.90
37702;DHT22;23548;51.196;6.838;2024-01-15T04:23:45;2.10;99.90
37702;DHT22;23548;51.196;6.838;2024-01-15T04:26:11;2.20;99.90
37702;DHT22;23548;51.196;6.838;2024-01-15T04:28:36;2.30;99.90
37702;DHT22;23548;51.196;6.838;2024-01-15T04:31:02;2.20;99.90
37702;DHT22;23548;51.196;6.838;2024-01-15T04:33:28;2.20;99.90
37702;DHT22;23548;51.196;6.838;2024-01-15T04:35:54;2.10;99.90
37702;DHT22;23548;51.196;6.838;2024-01-15T04:38:19;2.10;99.90
37702;DHT22;23548;51.196;6.838;2024-01-15T04:40:45;2.10;99.90
37702;DHT22;23548;51.196;6.838;2024-01-15T04:43:11;2.10;99.90
37702;DHT22;23548;51.196;6.838;2024-01-15T04:45:36;2.10;99.90
37702;DHT22;23548;51.196;6.838;2024-01-15T04:48:02;2.10;99.90
37702;DHT22;23548;51.196;6.838;2024-01-15T04:50:28;2.20;99.90
37702;DHT22;23548;51.196;6.838;2024-01-15T04:52:54;2.20;99.90
37702;DHT22;23548;51.196;6.838;2024-01-15T04:55:19;2.20;99.90
37702;DHT22;23548;51.196;6.838;2024-01-15T04:57:45;2.20;99.90
37702;DHT22;23548;51.196;6.838;2024-01-15T05:00:12;2.20;99.90
37702;DHT22;23548;51.196;6.838;2024-01-15T05:02:39;2.10;99.90
37702;DHT22;23548;51.196;6.838;2024-01-15T05:05:04;2.10;99.90
37702;DHT22;23548;51.196;6.838;2024-01-15T05:07:30;2.10;99.90
37702;DHT22;23548;51.196;6.838;2024-01-15T05:09:56;2.30;99.90
37702;DHT22;23548;51.196;6.838;2024-01-15T05:12:21;2.30;99.90
37702;DHT22;23548;51.196;6.838;2024-01-15T05:14:47;2.30;99.90
37702;DHT22;23548;51.196;6.838;2024-01-15T05:17:13;2.30;99.90
37702;DHT22;23548;51.196;6.838;2024-01-15T05:19:39;2.20;99.90
37702;DHT22;23548;51.196;6.838;2024-01-15T05:22:04;2.30;99.90
37702;DHT22;23548;51.196;6.838;2024-01-15T05:24:30;2.20;99.90
37702;DHT22;23548;51.196;6.838;2024-01-15T05:26:56;2.20;99.90
37702;DHT22;23548;51.196;6.838;2024-01-15T05:29:22;2.30;99.90
37702;DHT22;23548;51.196;6.838;2024-01-15T05:31:48;2.20;99.90
37702;DHT22;23548;51.196;6.838;2024-01-15T05:34:14;2.20;99.90
37702;DHT22;23548;51.196;6.838;2024-01-15T05:36:39;2.30;99.90
37702;DHT22;23548;51.196;6.838;2024-01-15T05:39:05;2.30;99.90
37702;DHT22;23548;51.196;6.838;2024-01-15T05:41:31;2.30;99.90
37702;DHT22;23548;51.196;6.838;2024-01-15T05:43:56;2.30;99.90
37702;DHT22;23548;51.196;6.838;2024-01-15T05:46:22;2.30;99.90
37702;DHT22;23548;51.196;6.838;2024-01-15T05:48:48;2.30;99.90
37702;DHT22;23548;51.196;6.838;2024-01-15T05:51:13;2.30;99.90
37702;DHT22;23548;51.196;6.838;2024-01-15T05:53:39;2.40;99.90
37702;DHT22;23548;51.196;6.838;2024-01-15T05:56:07;2.30;99.90
37702;DHT22;23548;51.196;6.838;2024-01-15T05:58:32;2.40;99.90
37702;DHT22;23548;51.196;6.838;2024-01-15T06:00:58;2.40;99.90
37702;DHT22;23548;51.196;6.838;2024-01-15T06:03:24;2.40;99.90
37702;DHT22;23548;51.196;6.838;2024-01-15T06:05:49;2.40;99.90
37702;DHT22;23548;51.196;6.838;2024-01-15T06:08:15;2.40;99.90
37702;DHT22;23548;51.196;6.838;2024-01-15T06:10:41;2.40;99.90
37702;DHT22;23548;51.196;6.838;2024-01-15T06:13:06;2.40;99.90
37702;DHT22;23548;51.196;6.838;2024-01-15T06:15:32;2.40;99.90
37702;DHT22;23548;51.196;6.838;2024-01-15T06:17:58;2.40;99.90
37702;DHT22;23548;51.196;6.838;2024-01-15T06:20:23;2.40;99.90
37702;DHT22;23548;51.196;6.838;2024-01-15T06:22:49;2.30;99.90
37702;DHT22;23548;51.196;6.838;2024-01-15T06:25:15;2.30;99.90
37702;DHT22;23548;51.196;6.838;2024-01-15T06:27:41;2.40;99.90
37702;DHT22;23548;51.196;6.838;2024-01-15T06:30:07;2.30;99.90
37702;DHT22;23548;51.196;6.838;2024-01-15T06:32:32;2.30;99.90
37702;DHT22;23548;51.196;6.838;2024-01-15T06:34:58;2.30;99.90
37702;DHT22;23548;51.196;6.838;2024-01-15T06:37:24;2.40;99.90
37702;DHT22;23548;51.196;6.838;2024-01-15T06:39:49;2.40;99.90
37702;DHT22;23548;51.196;6.838;2024-01-15T06:42:15;2.40;99.90
37702;DHT22;23548;51.196;6.838;2024-01-15T06:44:41;2.40;99.90
37702;DHT22;23548;51.196;6.838;2024-01-15T06:47:06;2.40;99.90
37702;DHT22;23548;51.196;6.838;2024-01-15T06:49:32;2.30;99.90
37702;DHT22;23548;51.196;6.838;2024-01-15T06:51:58;2.20;99.90
37702;DHT22;23548;51.196;6.838;2024-01-15T06:54:24;2.30;99.90
37702;DHT22;23548;51.196;6.838;2024-01-15T06:56:51;2.20;99.90
37702;DHT22;23548;51.196;6.838;2024-01-15T06:59:17;2.20;99.90
37702;DHT22;23548;51.196;6.838;2024-01-15T07:01:42;2.10;99.90
37702;DHT22;23548;51.196;6.838;2024-01-15T07:04:08;2.10;99.90
37702;DHT22;23548;51.196;6.838;2024-01-15T07:06:34;2.00;99.90
37702;DHT22;23548;51.196;6.838;2024-01-15T07:09:00;2.00;99.90
37702;DHT22;23548;51.196;6.838;2024-01-15T07:11:25;2.00;99.90
37702;DHT22;23548;51.196;6.838;2024-01-15T07:13:51;2.10;99.90
37702;DHT22;23548;51.196;6.838;2024-01-15T07:16:17;2.00;99.90
37702;DHT22;23548;51.196;6.838;2024-01-15T07:18:42;2.10;99.90
37702;DHT22;23548;51.196;6.838;2024-01-15T07:21:08;2.10;99.90
37702;DHT22;23548;51.196;6.838;2024-01-15T07:23:34;2.10;99.90
37702;DHT22;23548;51.196;6.838;2024-01-15T07:26:00;2.10;99.90
37702;DHT22;23548;51.196;6.838;2024-01-15T07:28:28;2.10;99.90
37702;DHT22;23548;51.196;6.838;2024-01-15T07:30:54;2.10;99.90
37702;DHT22;23548;51.196;6.838;2024-01-15T07:33:20;2.10;99.90
37702;DHT22;23548;51.196;6.838;2024-01-15T07:35:45;2.20;99.90
37702;DHT22;23548;51.196;6.838;2024-01-15T07:38:12;2.10;99.90
37702;DHT22;23548;51.196;6.838;2024-01-15T07:40:37;2.10;99.90
37702;DHT22;23548;51.196;6.838;2024-01-15T07:43:03;2.20;99.90
37702;DHT22;23548;51.196;6.838;2024-01-15T07:45:29;2.20;99.90
37702;DHT22;23548;51.196;6.838;2024-01-15T07:47:55;2.20;99.90
37702;DHT22;23548;51.196;6.838;2024-01-15T07:50:21;2.30;99.90
37702;DHT22;23548;51.196;6.838;2024-01-15T07:52:47;2.20;99.90
37702;DHT22;23548;51.196;6.838;2024-01-15T07:55:13;2.20;99.90
37702;DHT22;23548;51.196;6.838;2024-01-15T07:57:39;2.20;99.90
37702;DHT22;23548;51.196;6.838;2024-01-15T08:00:05;2.20;99.90
37702;DHT22;23548;51.196;6.838;2024-01-15T08:02:31;2.10;99.90
37702;DHT22;23548;51.196;6.838;2024-01-15T08:04:57;2.10;99.90
37702;DHT22;23548;51.196;6.838;2024-01-15T08:07:25;2.10;99.90
37702;DHT22;23548;51.196;6.838;2024-01-15T08:09:51;2.20;99.90
37702;DHT22;23548;51.196;6.838;2024-01-15T08:12:17;2.20;99.90
37702;DHT22;23548;51.196;6.838;2024-01-15T08:14:43;2.20;99.90
37702;DHT22;23548;51.196;6.838;2024-01-15T08:17:09;2.10;99.90
37702;DHT22;23548;51.196;6.838;2024-01-15T08:19:34;2.20;99.90
37702;DHT22;23548;51.196;6.838;2024-01-15T08:22:00;2.10;99.90
37702;DHT22;23548;51.196;6.838;2024-01-15T08:24:26;2.10;99.90
37702;DHT22;23548;51.196;6.838;2024-01-15T08:26:52;2.10;99.90
37702;DHT22;23548;51.196;6.838;2024-01-15T08:29:17;2.10;99.90
37702;DHT22;23548;51.196;6.838;2024-01-15T08:31:46;2.00;99.90
37702;DHT22;23548;51.196;6.838;2024-01-15T08:34:12;2.00;99.90
37702;DHT22;23548;51.196;6.838;2024-01-15T08:36:37;2.10;99.90
37702;DHT22;23548;51.196;6.838;2024-01-15T08:39:03;2.00;99.90
37702;DHT22;23548;51.196;6.838;2024-01-15T08:41:31;2.00;99.90
37702;DHT22;23548;51.196;6.838;2024-01-15T08:43:57;1.90;99.90
37702;DHT22;23548;51.196;6.838;2024-01-15T08:46:23;1.70;99.90
37702;DHT22;23548;51.196;6.838;2024-01-15T08:48:49;1.70;99.90
37702;DHT22;23548;51.196;6.838;2024-01-15T08:51:15;1.60;99.90
37702;DHT22;23548;51.196;6.838;2024-01-15T08:53:41;1.60;99.90
37702;DHT22;23548;51.196;6.838;2024-01-15T08:56:06;1.60;99.90
37702;DHT22;23548;51.196;6.838;2024-01-15T08:58:34;1.60;99.90
37702;DHT22;23548;51.196;6.838;2024-01-15T09:01:00;1.50;99.90
37702;DHT22;23548;51.196;6.838;2024-01-15T09:03:26;1.60;99.90
37702;DHT22;23548;51.196;6.838;2024-01-15T09:05:51;1.60;99.90
37702;DHT22;23548;51.196;6.838;2024-01-15T09:08:17;1.60;99.90
37702;DHT22;23548;51.196;6.838;2024-01-15T09:10:43;1.60;99.90
37702;DHT22;23548;51.196;6.838;2024-01-15T09:13:09;1.60;99.90
37702;DHT22;23548;51.196;6.838;2024-01-15T09:15:35;1.60;99.90
37702;DHT22;23548;51.196;6.838;2024-01-15T09:18:00;1.60;99.90
37702;DHT22;23548;51.196;6.838;2024-01-15T09:20:27;1.50;99.90
37702;DHT22;23548;51.196;6.838;2024-01-15T09:22:53;1.60;99.90
37702;DHT22;23548;51.196;6.838;2024-01-15T09:25:19;1.60;99.90
37702;DHT22;23548;51.196;6.838;2024-01-15T09:27:45;1.70;99.90
37702;DHT22;23548;51.196;6.838;2024-01-15T09:30:11;1.60;99.90
37702;DHT22;23548;51.196;6.838;2024-01-15T09:32:37;1.60;99.90
37702;DHT22;23548;51.196;6.838;2024-01-15T09:35:03;1.60;99.90
37702;DHT22;23548;51.196;6.838;2024-01-15T09:37:29;1.60;99.90
37702;DHT22;23548;51.196;6.838;2024-01-15T09:39:54;1.60;99.90
37702;DHT22;23548;51.196;6.838;2024-01-15T09:42:23;1.60;99.90
37702;DHT22;23548;51.196;6.838;2024-01-15T09:44:50;1.60;99.90
37702;DHT22;23548;51.196;6.838;2024-01-15T09:47:17;1.70;99.90
37702;DHT22;23548;51.196;6.838;2024-01-15T09:49:44;1.80;99.90
37702;DHT22;23548;51.196;6.838;2024-01-15T09:52:11;1.80;99.90
37702;DHT22;23548;51.196;6.838;2024-01-15T09:54:37;1.80;99.90
37702;DHT22;23548;51.196;6.838;2024-01-15T09:57:04;1.90;99.90
37702;DHT22;23548;51.196;6.838;2024-01-15T09:59:31;1.80;99.90
37702;DHT22;23548;51.196;6.838;2024-01-15T10:01:58;1.80;99.90
37702;DHT22;23548;51.196;6.838;2024-01-15T10:04:25;1.90;99.90
37702;DHT22;23548;51.196;6.838;2024-01-15T10:06:51;1.90;99.90
37702;DHT22;23548;51.196;6.838;2024-01-15T10:09:17;2.00;99.90
37702;DHT22;23548;51.196;6.838;2024-01-15T10:11:44;2.00;99.90
37702;DHT22;23548;51.196;6.838;2024-01-15T10:14:11;2.00;99.90
37702;DHT22;23548;51.196;6.838;2024-01-15T10:16:38;2.00;99.90
37702;DHT22;23548;51.196;6.838;2024-01-15T10:19:04;2.00;99.90
37702;DHT22;23548;51.196;6.838;2024-01-15T10:21:32;2.10;99.90
37702;DHT22;23548;51.196;6.838;2024-01-15T10:24:01;2.20;99.90
37702;DHT22;23548;51.196;6.838;2024-01-15T10:26:28;2.20;99.90
37702;DHT22;23548;51.196;6.838;2024-01-15T10:28:54;2.30;99.90
37702;DHT22;23548;51.196;6.838;2024-01-15T10:31:20;2.20;99.90
37702;DHT22;23548;51.196;6.838;2024-01-15T10:33:48;2.10;99.90
37702;DHT22;23548;51.196;6.838;2024-01-15T10:36:15;2.10;99.90
37702;DHT22;23548;51.196;6.838;2024-01-15T10:38:43;2.20;99.90
37702;DHT22;23548;51.196;6.838;2024-01-15T10:41:09;2.10;99.90
37702;DHT22;23548;51.196;6.838;2024-01-15T10:43:35;2.10;99.90
37702;DHT22;23548;51.196;6.838;2024-01-15T10:46:01;2.00;99.90
37702;DHT22;23548;51.196;6.838;2024-01-15T10:48:27;1.90;99.90
37702;DHT22;23548;51.196;6.838;2024-01-15T10:50:56;1.90;99.90
37702;DHT22;23548;51.196;6.838;2024-01-15T10:53:23;1.90;99.90
37702;DHT22;23548;51.196;6.838;2024-01-15T10:55:50;1.80;99.90
37702;DHT22;23548;51.196;6.838;2024-01-15T10:58:17;1.90;99.90
37702;DHT22;23548;51.196;6.838;2024-01-15T11:00:44;2.00;99.90
37702;DHT22;23548;51.196;6.838;2024-01-15T11:03:10;2.10;99.90
37702;DHT22;23548;51.196;6.838;2024-01-15T11:05:40;2.20;99.90
37702;DHT22;23548;51.196;6.838;2024-01-15T11:08:07;2.40;99.90
37702;DHT22;23548;51.196;6.838;2024-01-15T11:10:43;2.50;99.90
37702;DHT22;23548;51.196;6.838;2024-01-15T11:13:15;2.60;99.90
37702;DHT22;23548;51.196;6.838;2024-01-15T11:16:01;2.70;99.90
37702;DHT22;23548;51.196;6.838;2024-01-15T11:18:28;2.60;99.90
37702;DHT22;23548;51.196;6.838;2024-01-15T11:23:47;2.50;99.90
37702;DHT22;23548;51.196;6.838;2024-01-15T11:27:05;2.50;99.90
37702;DHT22;23548;51.196;6.838;2024-01-15T11:31:59;2.80;99.90
37702;DHT22;23548;51.196;6.838;2024-01-15T11:37:15;3.10;99.90
37702;DHT22;23548;51.196;6.838;2024-01-15T11:39:44;3.40;99.90
37702;DHT22;23548;51.196;6.838;2024-01-15T11:42:11;3.40;99.90
37702;DHT22;23548;51.196;6.838;2024-01-15T11:44:40;3.50;99.90
37702;DHT22;23548;51.196;6.838;2024-01-15T11:47:08;3.50;99.90
37702;DHT22;23548;51.196;6.838;2024-01-15T11:50:00;3.50;99.90
37702;DHT22;23548;51.196;6.838;2024-01-15T11:52:39;3.20;99.90
37702;DHT22;23548;51.196;6.838;2024-01-15T11:57:53;3.20;99.90
37702;DHT22;23548;51.196;6.838;2024-01-15T12:00:22;3.20;99.90
37702;DHT22;23548;51.196;6.838;2024-01-15T12:02:49;3.20;99.90
37702;DHT22;23548;51.196;6.838;2024-01-15T12:05:17;3.20;99.90
37702;DHT22;23548;51.196;6.838;2024-01-15T12:07:44;3.50;99.90
37702;DHT22;23548;51.196;6.838;2024-01-15T12:10:12;3.50;99.90
37702;DHT22;23548;51.196;6.838;2024-01-15T12:15:14;3.80;99.90
37702;DHT22;23548;51.196;6.838;2024-01-15T12:17:40;3.50;99.90
37702;DHT22;23548;51.196;6.838;2024-01-15T12:20:06;3.40;99.90
37702;DHT22;23548;51.196;6.838;2024-01-15T12:22:33;3.30;99.90
37702;DHT22;23548;51.196;6.838;2024-01-15T12:24:58;3.40;99.90
37702;DHT22;23548;51.196;6.838;2024-01-15T12:27:25;3.40;99.90
37702;DHT22;23548;51.196;6.838;2024-01-15T12:29:53;3.50;99.90
37702;DHT22;23548;51.196;6.838;2024-01-15T12:32:19;3.50;99.90
37702;DHT22;23548;51.196;6.838;2024-01-15T12:34:46;3.50;99.90
37702;DHT22;23548;51.196;6.838;2024-01-15T12:37:11;3.50;99.90
37702;DHT22;23548;51.196;6.838;2024-01-15T12:39:37;3.50;99.90
37702;DHT22;23548;51.196;6.838;2024-01-15T12:42:03;3.50;99.90
37702;DHT22;23548;51.196;6.838;2024-01-15T12:44:31;3.60;99.90
37702;DHT22;23548;51.196;6.838;2024-01-15T12:46:57;3.50;99.90
37702;DHT22;23548;51.196;6.838;2024-01-15T12:49:24;3.70;99.90
37702;DHT22;23548;51.196;6.838;2024-01-15T12:51:59;3.70;99.90
37702;DHT22;23548;51.196;6.838;2024-01-15T12:54:25;3.60;99.90
37702;DHT22;23548;51.196;6.838;2024-01-15T12:56:51;3.70;99.90
37702;DHT22;23548;51.196;6.838;2024-01-15T12:59:18;3.80;99.90
37702;DHT22;23548;51.196;6.838;2024-01-15T13:01:44;3.80;99.90
37702;DHT22;23548;51.196;6.838;2024-01-15T13:04:10;3.70;99.90
37702;DHT22;23548;51.196;6.838;2024-01-15T13:06:36;3.50;99.90
37702;DHT22;23548;51.196;6.838;2024-01-15T13:09:03;3.40;99.90
37702;DHT22;23548;51.196;6.838;2024-01-15T13:11:32;3.40;99.90
37702;DHT22;23548;51.196;6.838;2024-01-15T13:13:58;3.40;99.90
37702;DHT22;23548;51.196;6.838;2024-01-15T13:16:24;3.40;99.90
37702;DHT22;23548;51.196;6.838;2024-01-15T13:18:52;3.40;99.90
37702;DHT22;23548;51.196;6.838;2024-01-15T13:21:18;3.50;99.90
37702;DHT22;23548;51.196;6.838;2024-01-15T13:23:44;3.50;99.90
37702;DHT22;23548;51.196;6.838;2024-01-15T13:26:09;3.40;99.90
37702;DHT22;23548;51.196;6.838;2024-01-15T13:28:35;3.10;99.90
37702;DHT22;23548;51.196;6.838;2024-01-15T13:31:01;3.00;99.90
37702;DHT22;23548;51.196;6.838;2024-01-15T13:33:27;3.00;99.90
37702;DHT22;23548;51.196;6.838;2024-01-15T13:35:53;2.90;99.90
37702;DHT22;23548;51.196;6.838;2024-01-15T13:38:19;2.90;99.90
37702;DHT22;23548;51.196;6.838;2024-01-15T13:40:44;2.90;99.90
37702;DHT22;23548;51.196;6.838;2024-01-15T13:43:11;2.80;99.90
37702;DHT22;23548;51.196;6.838;2024-01-15T13:45:37;2.80;99.90
37702;DHT22;23548;51.196;6.838;2024-01-15T13:48:04;2.80;99.90
37702;DHT22;23548;51.196;6.838;2024-01-15T13:50:34;2.90;99.90
37702;DHT22;23548;51.196;6.838;2024-01-15T13:53:00;2.80;99.90
37702;DHT22;23548;51.196;6.838;2024-01-15T13:55:26;2.80;99.90
37702;DHT22;23548;51.196;6.838;2024-01-15T13:57:51;2.80;99.90
37702;DHT22;23548;51.196;6.838;2024-01-15T14:00:17;2.70;99.90
37702;DHT22;23548;51.196;6.838;2024-01-15T14:02:46;2.70;99.90
37702;DHT22;23548;51.196;6.838;2024-01-15T14:05:12;2.70;99.90
37702;DHT22;23548;51.196;6.838;2024-01-15T14:07:38;2.60;99.90
37702;DHT22;23548;51.196;6.838;2024-01-15T14:10:13;2.60;99.90
37702;DHT22;23548;51.196;6.838;2024-01-15T14:12:38;2.70;99.90
37702;DHT22;23548;51.196;6.838;2024-01-15T14:15:05;2.70;99.90
37702;DHT22;23548;51.196;6.838;2024-01-15T14:17:34;2.70;99.90
37702;DHT22;23548;51.196;6.838;2024-01-15T14:19:59;2.70;99.90
37702;DHT22;23548;51.196;6.838;2024-01-15T14:22:25;2.80;99.90
37702;DHT22;23548;51.196;6.838;2024-01-15T14:24:54;2.90;99.90
37702;DHT22;23548;51.196;6.838;2024-01-15T14:27:20;2.90;99.90
37702;DHT22;23548;51.196;6.838;2024-01-15T14:29:47;2.80;99.90
37702;DHT22;23548;51.196;6.838;2024-01-15T14:32:12;2.80;99.90
37702;DHT22;23548;51.196;6.838;2024-01-15T14:34:38;2.90;99.90
37702;DHT22;23548;51.196;6.838;2024-01-15T14:37:04;2.90;99.90
37702;DHT22;23548;51.196;6.838;2024-01-15T14:39:30;2.90;99.90
37702;DHT22;23548;51.196;6.838;2024-01-15T14:41:59;2.80;99.90
37702;DHT22;23548;51.196;6.838;2024-01-15T14:44:25;2.90;99.90
37702;DHT22;23548;51.196;6.838;2024-01-15T14:46:51;2.90;99.90
37702;DHT22;23548;51.196;6.838;2024-01-15T14:49:17;2.80;99.90
37702;DHT22;23548;51.196;6.838;2024-01-15T14:51:43;2.80;99.90
37702;DHT22;23548;51.196;6.838;2024-01-15T14:54:10;2.80;99.90
37702;DHT22;23548;51.196;6.838;2024-01-15T14:56:36;2.80;99.90
37702;DHT22;23548;51.196;6.838;2024-01-15T14:59:01;2.80;99.90
37702;DHT22;23548;51.196;6.838;2024-01-15T15:01:28;2.80;99.90
37702;DHT22;23548;51.196;6.838;2024-01-15T15:03:53;2.70;99.90
37702;DHT22;23548;51.196;6.838;2024-01-15T15:06:19;2.70;99.90
37702;DHT22;23548;51.196;6.838;2024-01-15T15:08:46;2.70;99.90
37702;DHT22;23548;51.196;6.838;2024-01-15T15:11:12;2.70;99.90
37702;DHT22;23548;51.196;6.838;2024-01-15T15:13:39;2.70;99.90
37702;DHT22;23548;51.196;6.838;2024-01-15T15:16:05;2.60;99.90
37702;DHT22;23548;51.196;6.838;2024-01-15T15:18:31;2.60;99.90
37702;DHT22;23548;51.196;6.838;2024-01-15T15:20:57;2.60;99.90
37702;DHT22;23548;51.196;6.838;2024-01-15T15:23:23;2.60;99.90
37702;DHT22;23548;51.196;6.838;2024-01-15T15:25:49;2.60;99.90
37702;DHT22;23548;51.196;6.838;2024-01-15T15:28:14;2.50;99.90
37702;DHT22;23548;51.196;6.838;2024-01-15T15:30:41;2.50;99.90
37702;DHT22;23548;51.196;6.838;2024-01-15T15:33:07;2.40;99.90
37702;DHT22;23548;51.196;6.838;2024-01-15T15:35:33;2.30;99.90
37702;DHT22;23548;51.196;6.838;2024-01-15T15:37:58;2.30;99.90
37702;DHT22;23548;51.196;6.838;2024-01-15T15:40:24;2.30;99.90
37702;DHT22;23548;51.196;6.838;2024-01-15T15:42:51;2.20;99.90
37702;DHT22;23548;51.196;6.838;2024-01-15T15:45:16;2.10;99.90
37702;DHT22;23548;51.196;6.838;2024-01-15T15:47:42;2.10;99.90
37702;DHT22;23548;51.196;6.838;2024-01-15T15:50:08;1.80;99.90
37702;DHT22;23548;51.196;6.838;2024-01-15T15:52:34;1.80;99.90
37702;DHT22;23548;51.196;6.838;2024-01-15T15:55:00;1.70;99.90
37702;DHT22;23548;51.196;6.838;2024-01-15T15:57:26;1.60;99.90